Stanton, Alabama
Current Conditions -  °F | °C
As of 3:35 PM on Saturday 25 Oct 2014 (Local Time) from KSEM Reporting Station
Clear Clear  
Wind Chill: 77°   Ceiling: Unl
Heat Index: 78°   Visibility: 10mi
Dew Point: 54°   Wind: 8mph
Humidity: 44%   Direction: 300°WNW
Pressure: 30.04"   Gusts: 15mph
Location:  32.74°N, 86.9°W
Report Text: KSEM 252035Z AUTO 30007G13KT 290V350 10SM CLR 25/12 A3004 RMK AO2
Loading
Personal Weather Stations






























Interactive Weather Map
Tropical Storm Tracking
New forecast layout! Learn more

10-Day Weather Forecast

Advertisements
Track Severe Weather on mobile